Pondicherry, India
Current Conditions -  °F | °C
As of 9:10 AM on Saturday 25 Oct 2014 (Local Time) from VOMM Reporting Station
Scattered Clouds Scattered Clouds  
Wind Chill: 88°   Ceiling: Unl
Heat Index: 100°   Visibility: 6mi
Dew Point: 77°   Wind: 7mph
Humidity: 70%   Direction: 90°E
Pressure: 29.88"   Gusts: NA
Location:  11.93°N, 79.88°E
Report Text: VOMM 250410Z 09006KT 9999 FEW020 SCT025 31/25 Q1012 NOSIG
Loading
Personal Weather Stations






























Interactive Weather Map
Tropical Storm Tracking
New forecast layout! Learn more

10-Day Weather Forecast

Advertisements
Track Severe Weather on mobile